Time;durP1;ratioP1;P1;durP2;ratioP2;P2;SDS_P1;SDS_P2;PMS_P1;PMS_P2;Temp;Humidity;BMP_temperature;BMP_pressure;BME280_temperature;BME280_humidity;BME280_pressure;Samples;Min_cycle;Max_cycle;Signal;HPM_P1;HPM_P2
2022/12/31 00:02:23;;;;;;;1.10;1.10;;;;;;;;;;5051543;28;20449;-74
2022/12/31 00:04:51;;;;;;;1.57;1.47;;;;;;;;;;5051787;28;20477;-75
2022/12/31 00:07:18;;;;;;;1.40;1.30;;;;;;;;;;5051844;28;20982;-74
2022/12/31 00:09:45;;;;;;;1.23;1.20;;;;;;;;;;5051887;28;20929;-75
2022/12/31 00:12:12;;;;;;;1.30;1.20;;;;;;;;;;5051591;28;20441;-75
2022/12/31 00:14:39;;;;;;;1.13;1.13;;;;;;;;;;5051248;28;20446;-74
2022/12/31 00:17:06;;;;;;;1.57;1.50;;;;;;;;;;5051309;28;20555;-75
2022/12/31 00:19:33;;;;;;;1.30;1.27;;;;;;;;;;5051401;28;20448;-75
2022/12/31 00:22:02;;;;;;;1.40;1.40;;;;;;;;;;5051465;28;20453;-74
2022/12/31 00:24:29;;;;;;;1.23;1.10;;;;;;;;;;5051157;28;20449;-75
2022/12/31 00:26:56;;;;;;;1.00;1.00;;;;;;;;;;5050978;28;20544;-74
2022/12/31 00:29:24;;;;;;;1.90;1.30;;;;;;;;;;5051513;28;20441;-74
2022/12/31 00:31:51;;;;;;;1.53;1.43;;;;;;;;;;5050886;28;20458;-74
2022/12/31 00:34:18;;;;;;;1.63;1.53;;;;;;;;;;5050904;28;21015;-74
2022/12/31 00:36:46;;;;;;;2.03;1.57;;;;;;;;;;5051044;28;20433;-74
2022/12/31 00:39:14;;;;;;;1.33;1.23;;;;;;;;;;5051257;28;20454;-75
2022/12/31 00:41:42;;;;;;;1.30;1.20;;;;;;;;;;5050904;28;20454;-74
2022/12/31 00:44:10;;;;;;;1.40;1.30;;;;;;;;;;5050911;28;20444;-74
2022/12/31 00:46:37;;;;;;;1.03;1.03;;;;;;;;;;5050589;28;20481;-75
2022/12/31 00:49:04;;;;;;;1.30;1.20;;;;;;;;;;5050454;28;20469;-75
2022/12/31 00:51:31;;;;;;;1.13;1.00;;;;;;;;;;5050650;28;20473;-75
2022/12/31 00:53:58;;;;;;;1.57;1.47;;;;;;;;;;5050416;28;20457;-75
2022/12/31 00:56:27;;;;;;;0.90;0.90;;;;;;;;;;5050524;28;20476;-75
2022/12/31 00:58:54;;;;;;;1.27;1.27;;;;;;;;;;5050841;28;20461;-75
2022/12/31 01:01:22;;;;;;;1.00;1.00;;;;;;;;;;5054295;28;20440;-74
2022/12/31 01:03:51;;;;;;;1.40;1.30;;;;;;;;;;5054965;28;20453;-75
2022/12/31 01:06:18;;;;;;;2.00;1.07;;;;;;;;;;5058606;28;20477;-75
2022/12/31 01:08:45;;;;;;;1.03;1.03;;;;;;;;;;5056088;28;20520;-75
2022/12/31 01:11:20;;;;;;;1.80;1.50;;;;;;;;;;5051328;28;20445;-75
2022/12/31 01:13:50;;;;;;;1.00;1.00;;;;;;;;;;5050380;28;20445;-75
2022/12/31 01:16:18;;;;;;;1.00;1.00;;;;;;;;;;5030640;28;20438;-76
2022/12/31 01:18:45;;;;;;;2.37;1.10;;;;;;;;;;5030166;28;20497;-74
2022/12/31 01:21:13;;;;;;;1.00;1.00;;;;;;;;;;5031529;28;20679;-74
2022/12/31 01:23:40;;;;;;;1.10;1.10;;;;;;;;;;5031647;28;20442;-74
2022/12/31 01:26:08;;;;;;;1.60;1.10;;;;;;;;;;5031763;28;20486;-75
2022/12/31 01:28:35;;;;;;;1.73;1.30;;;;;;;;;;5032292;28;20485;-75
2022/12/31 01:31:05;;;;;;;1.07;1.07;;;;;;;;;;5031149;28;20450;-75
2022/12/31 01:33:32;;;;;;;1.33;0.97;;;;;;;;;;5029976;28;20466;-75
2022/12/31 01:36:02;;;;;;;0.77;0.77;;;;;;;;;;5030195;28;21214;-74
2022/12/31 01:38:29;;;;;;;1.13;0.90;;;;;;;;;;5030055;28;20989;-75
2022/12/31 01:40:56;;;;;;;0.80;0.80;;;;;;;;;;5030235;28;20455;-75
2022/12/31 01:43:23;;;;;;;1.20;0.97;;;;;;;;;;5029304;28;20863;-75
2022/12/31 01:45:51;;;;;;;0.90;0.90;;;;;;;;;;5030065;28;20478;-75
2022/12/31 01:48:21;;;;;;;1.63;0.80;;;;;;;;;;5030194;28;20469;-73
2022/12/31 01:50:48;;;;;;;1.13;0.93;;;;;;;;;;5030171;28;20509;-75
2022/12/31 01:53:17;;;;;;;1.10;0.97;;;;;;;;;;5030008;28;20445;-75
2022/12/31 01:55:46;;;;;;;0.80;0.80;;;;;;;;;;5029854;28;20442;-75
2022/12/31 01:58:16;;;;;;;1.30;0.93;;;;;;;;;;5029775;28;20480;-74
2022/12/31 02:00:44;;;;;;;1.00;1.00;;;;;;;;;;5029994;28;20516;-75
2022/12/31 02:03:12;;;;;;;1.00;1.00;;;;;;;;;;5029611;28;20876;-75
2022/12/31 02:05:44;;;;;;;0.90;0.90;;;;;;;;;;5029971;28;20497;-74
2022/12/31 02:08:11;;;;;;;1.07;1.07;;;;;;;;;;5030033;28;20519;-74
2022/12/31 02:10:38;;;;;;;0.70;0.70;;;;;;;;;;5030022;28;20446;-74
2022/12/31 02:13:05;;;;;;;1.30;1.13;;;;;;;;;;5035217;28;20446;-75
2022/12/31 02:15:40;;;;;;;2.10;1.03;;;;;;;;;;5058526;28;20925;-74
2022/12/31 02:18:11;;;;;;;1.57;1.57;;;;;;;;;;5064522;28;20468;-74
2022/12/31 02:20:56;;;;;;;1.33;1.17;;;;;;;;;;5063871;28;20437;-73
2022/12/31 02:23:27;;;;;;;1.30;1.20;;;;;;;;;;5063589;28;20457;-74
2022/12/31 02:26:09;;;;;;;1.00;1.00;;;;;;;;;;5058448;28;20542;-74
2022/12/31 02:28:44;;;;;;;1.00;0.90;;;;;;;;;;5016544;28;20534;-75
2022/12/31 02:31:15;;;;;;;1.60;0.90;;;;;;;;;;5049630;28;20712;-74
2022/12/31 02:33:45;;;;;;;1.03;1.03;;;;;;;;;;5049480;28;20941;-74
2022/12/31 02:36:14;;;;;;;1.43;1.43;;;;;;;;;;5049594;28;20438;-73
2022/12/31 02:38:44;;;;;;;1.30;0.93;;;;;;;;;;5049645;28;20469;-74
2022/12/31 02:41:48;;;;;;;1.90;1.03;;;;;;;;;;5049963;28;20695;-74
2022/12/31 02:43:59;;;;;;;1.27;1.17;;;;;;;;;;5049501;28;20442;-73
2022/12/31 02:46:30;;;;;;;0.80;0.80;;;;;;;;;;5050270;28;20580;-74
2022/12/31 02:48:59;;;;;;;0.90;0.90;;;;;;;;;;5050718;28;20973;-74
2022/12/31 02:51:34;;;;;;;1.00;1.00;;;;;;;;;;5057043;28;20457;-74
2022/12/31 02:54:08;;;;;;;1.00;1.00;;;;;;;;;;5057689;28;20521;-74
2022/12/31 02:56:38;;;;;;;1.13;1.13;;;;;;;;;;5055301;28;20456;-74
2022/12/31 03:04:39;;;;;;;1.50;1.40;;;;;;;;;;5053035;28;20844;-74
2022/12/31 03:07:07;;;;;;;1.23;1.13;;;;;;;;;;5052647;28;20487;-75
2022/12/31 03:09:34;;;;;;;1.43;1.10;;;;;;;;;;5052743;28;20835;-75
2022/12/31 03:14:47;;;;;;;2.10;1.13;;;;;;;;;;5044971;28;20425;-74
2022/12/31 03:17:15;;;;;;;1.33;1.10;;;;;;;;;;5033005;28;20477;-74
2022/12/31 03:22:27;;;;;;;1.13;1.13;;;;;;;;;;5033115;28;20545;-75
2022/12/31 03:27:40;;;;;;;0.90;0.80;;;;;;;;;;5031960;28;20520;-75
2022/12/31 03:30:07;;;;;;;1.10;1.10;;;;;;;;;;5031154;28;20438;-74
2022/12/31 03:32:36;;;;;;;0.80;0.80;;;;;;;;;;5029718;28;20446;-74
2022/12/31 03:35:03;;;;;;;1.20;1.10;;;;;;;;;;5030409;28;20447;-74
2022/12/31 03:37:30;;;;;;;1.63;1.10;;;;;;;;;;5030089;28;20824;-74
2022/12/31 03:39:57;;;;;;;1.30;1.20;;;;;;;;;;5030288;28;20457;-74
2022/12/31 03:42:24;;;;;;;2.37;0.90;;;;;;;;;;5029742;28;20930;-73
2022/12/31 03:44:51;;;;;;;1.37;1.27;;;;;;;;;;5029787;28;20851;-74
2022/12/31 03:47:18;;;;;;;1.00;1.00;;;;;;;;;;5029455;28;20536;-74
2022/12/31 03:49:47;;;;;;;0.90;0.90;;;;;;;;;;5030089;28;20446;-74
2022/12/31 03:52:14;;;;;;;2.13;1.10;;;;;;;;;;5029666;28;20453;-74
2022/12/31 03:54:41;;;;;;;0.93;0.93;;;;;;;;;;5029508;28;20450;-74
2022/12/31 03:57:08;;;;;;;2.00;1.10;;;;;;;;;;5029672;28;20469;-74
2022/12/31 03:59:35;;;;;;;0.83;0.83;;;;;;;;;;5032293;28;20469;-74
2022/12/31 04:02:02;;;;;;;0.87;0.80;;;;;;;;;;5036549;28;20472;-74
2022/12/31 04:04:29;;;;;;;0.90;0.90;;;;;;;;;;5030571;28;20800;-74
2022/12/31 04:06:57;;;;;;;0.77;0.77;;;;;;;;;;5030855;28;20561;-75
2022/12/31 04:09:24;;;;;;;1.77;1.10;;;;;;;;;;5031435;28;20453;-75
2022/12/31 04:11:51;;;;;;;1.07;1.00;;;;;;;;;;5031277;28;20512;-75
2022/12/31 04:14:18;;;;;;;0.80;0.80;;;;;;;;;;5037006;28;20446;-74
2022/12/31 04:16:45;;;;;;;1.43;0.80;;;;;;;;;;5053508;28;20857;-74
2022/12/31 04:19:13;;;;;;;0.90;0.90;;;;;;;;;;5051682;28;20495;-74
2022/12/31 04:21:40;;;;;;;1.27;0.70;;;;;;;;;;5053122;28;20498;-75
2022/12/31 04:24:09;;;;;;;1.20;0.93;;;;;;;;;;5052194;28;20450;-74
2022/12/31 04:26:36;;;;;;;0.70;0.70;;;;;;;;;;5050697;28;20548;-75
2022/12/31 04:29:03;;;;;;;0.77;0.77;;;;;;;;;;5051255;28;20469;-75
2022/12/31 04:31:30;;;;;;;0.80;0.80;;;;;;;;;;5050745;28;20945;-75
2022/12/31 04:33:57;;;;;;;0.77;0.77;;;;;;;;;;5050594;28;20445;-74
2022/12/31 04:36:24;;;;;;;0.70;0.70;;;;;;;;;;5050913;28;20449;-74
2022/12/31 04:38:51;;;;;;;1.83;0.87;;;;;;;;;;5050516;28;20535;-75
2022/12/31 04:41:20;;;;;;;0.70;0.70;;;;;;;;;;5050423;28;20449;-75
2022/12/31 04:43:48;;;;;;;0.80;0.80;;;;;;;;;;5050512;28;20477;-74
2022/12/31 04:46:16;;;;;;;1.33;1.10;;;;;;;;;;5050383;28;20579;-74
2022/12/31 04:48:43;;;;;;;0.83;0.83;;;;;;;;;;5050584;28;20473;-75
2022/12/31 04:51:10;;;;;;;0.90;0.90;;;;;;;;;;5050494;28;20444;-75
2022/12/31 04:53:37;;;;;;;0.80;0.80;;;;;;;;;;5050496;28;20482;-74
2022/12/31 04:56:04;;;;;;;0.70;0.70;;;;;;;;;;5050409;28;20974;-74
2022/12/31 04:58:33;;;;;;;1.23;0.73;;;;;;;;;;5050439;28;20473;-74
2022/12/31 05:01:00;;;;;;;0.70;0.70;;;;;;;;;;5050582;28;20442;-74
2022/12/31 05:03:27;;;;;;;1.73;0.97;;;;;;;;;;5049955;28;20440;-74
2022/12/31 05:05:55;;;;;;;0.73;0.73;;;;;;;;;;5050286;28;20446;-74
2022/12/31 05:08:22;;;;;;;1.23;1.10;;;;;;;;;;5049790;28;20859;-74
2022/12/31 05:10:49;;;;;;;0.80;0.80;;;;;;;;;;5050248;28;20460;-75
2022/12/31 05:13:16;;;;;;;0.70;0.70;;;;;;;;;;5049700;28;20453;-74
2022/12/31 05:15:46;;;;;;;0.77;0.77;;;;;;;;;;5049875;28;20460;-75
2022/12/31 05:18:13;;;;;;;1.07;0.70;;;;;;;;;;5049104;28;20548;-73
2022/12/31 05:20:40;;;;;;;0.97;0.80;;;;;;;;;;5050051;28;20563;-74
2022/12/31 05:23:08;;;;;;;0.93;0.93;;;;;;;;;;5050045;28;20453;-74
2022/12/31 05:25:35;;;;;;;2.57;0.60;;;;;;;;;;5050055;28;20433;-74
2022/12/31 05:28:02;;;;;;;0.77;0.77;;;;;;;;;;5049682;28;20608;-73
2022/12/31 05:30:29;;;;;;;0.80;0.80;;;;;;;;;;5050385;28;20442;-73
2022/12/31 05:32:58;;;;;;;1.33;0.97;;;;;;;;;;5049540;28;20452;-74
2022/12/31 05:35:26;;;;;;;1.20;0.90;;;;;;;;;;5049986;28;20456;-74
2022/12/31 05:37:53;;;;;;;1.00;0.90;;;;;;;;;;5050059;28;20453;-74
2022/12/31 05:40:20;;;;;;;1.27;1.00;;;;;;;;;;5049690;28;20448;-75
2022/12/31 05:42:47;;;;;;;1.00;1.00;;;;;;;;;;5049461;28;20941;-74
2022/12/31 05:45:14;;;;;;;0.70;0.70;;;;;;;;;;5049832;28;20868;-74
2022/12/31 05:47:41;;;;;;;0.90;0.90;;;;;;;;;;5046981;28;20485;-74
2022/12/31 05:50:10;;;;;;;1.30;0.73;;;;;;;;;;5049854;28;20503;-74
2022/12/31 05:52:38;;;;;;;1.00;1.00;;;;;;;;;;5049431;28;20517;-73
2022/12/31 05:55:05;;;;;;;1.03;0.70;;;;;;;;;;5049516;28;20443;-73
2022/12/31 05:57:32;;;;;;;0.90;0.90;;;;;;;;;;5050206;28;20637;-74
2022/12/31 05:59:59;;;;;;;1.17;1.07;;;;;;;;;;5049383;28;20852;-74
2022/12/31 06:02:26;;;;;;;1.90;1.30;;;;;;;;;;5048952;28;20448;-74
2022/12/31 06:04:54;;;;;;;1.43;1.20;;;;;;;;;;5049110;28;20453;-75
2022/12/31 06:07:22;;;;;;;1.50;1.40;;;;;;;;;;5049211;28;20989;-74
2022/12/31 06:09:49;;;;;;;1.20;1.10;;;;;;;;;;5049608;28;20450;-74
2022/12/31 06:12:16;;;;;;;0.87;0.87;;;;;;;;;;5049707;28;20503;-74
2022/12/31 06:14:44;;;;;;;0.83;0.83;;;;;;;;;;5049816;28;20468;-75
2022/12/31 06:17:11;;;;;;;1.00;1.00;;;;;;;;;;5049431;28;20461;-74
2022/12/31 06:19:38;;;;;;;0.90;0.90;;;;;;;;;;5049829;28;20437;-75
2022/12/31 06:22:05;;;;;;;1.47;1.00;;;;;;;;;;5049604;28;20807;-74
2022/12/31 06:24:33;;;;;;;1.10;1.10;;;;;;;;;;5049318;28;20445;-74
2022/12/31 06:27:00;;;;;;;1.03;0.93;;;;;;;;;;5049117;28;20485;-75
2022/12/31 06:29:27;;;;;;;1.07;1.07;;;;;;;;;;5050448;28;20453;-74
2022/12/31 06:31:54;;;;;;;1.00;0.90;;;;;;;;;;5053633;28;20467;-74
2022/12/31 06:34:21;;;;;;;1.00;1.00;;;;;;;;;;5053474;28;20495;-74
2022/12/31 06:36:48;;;;;;;0.80;0.80;;;;;;;;;;5053385;28;20498;-74
2022/12/31 06:39:15;;;;;;;2.10;1.07;;;;;;;;;;5053111;28;20824;-74
2022/12/31 06:41:44;;;;;;;0.73;0.73;;;;;;;;;;5053332;28;20448;-74
2022/12/31 06:44:11;;;;;;;1.03;0.90;;;;;;;;;;5065488;28;20444;-74
2022/12/31 06:46:38;;;;;;;0.93;0.90;;;;;;;;;;5072918;28;20468;-75
2022/12/31 06:49:05;;;;;;;0.63;0.63;;;;;;;;;;5073508;28;20460;-75
2022/12/31 06:51:32;;;;;;;0.73;0.73;;;;;;;;;;5073230;28;20527;-74
2022/12/31 06:53:59;;;;;;;0.97;0.97;;;;;;;;;;5074054;28;20444;-75
2022/12/31 06:56:28;;;;;;;0.90;0.90;;;;;;;;;;5074684;28;20452;-74
2022/12/31 06:58:57;;;;;;;0.80;0.80;;;;;;;;;;5073024;28;20559;-74
2022/12/31 07:01:30;;;;;;;0.80;0.80;;;;;;;;;;5072774;28;20662;-75
2022/12/31 07:04:00;;;;;;;1.00;1.00;;;;;;;;;;5072694;28;20448;-74
2022/12/31 07:06:30;;;;;;;0.77;0.70;;;;;;;;;;5072988;28;20460;-75
2022/12/31 07:09:01;;;;;;;3.37;0.87;;;;;;;;;;5074482;28;20475;-75
2022/12/31 07:11:30;;;;;;;1.33;1.00;;;;;;;;;;5073634;28;20456;-75
2022/12/31 07:14:02;;;;;;;0.87;0.87;;;;;;;;;;5072626;28;20490;-75
2022/12/31 07:16:34;;;;;;;0.90;0.90;;;;;;;;;;5054516;28;20438;-75
2022/12/31 07:19:06;;;;;;;1.17;1.00;;;;;;;;;;5053009;28;20515;-73
2022/12/31 07:21:35;;;;;;;0.90;0.90;;;;;;;;;;5052462;28;20495;-74
2022/12/31 07:24:03;;;;;;;0.80;0.80;;;;;;;;;;5052277;28;20851;-74
2022/12/31 07:26:36;;;;;;;1.00;1.00;;;;;;;;;;5051917;28;21020;-74
2022/12/31 07:29:10;;;;;;;1.00;1.00;;;;;;;;;;5052445;28;20477;-74
2022/12/31 07:31:45;;;;;;;0.97;0.87;;;;;;;;;;5052243;28;20498;-75
2022/12/31 07:34:19;;;;;;;1.10;1.10;;;;;;;;;;5051914;28;20468;-75
2022/12/31 07:36:52;;;;;;;0.80;0.80;;;;;;;;;;5052114;28;20476;-74
2022/12/31 07:39:23;;;;;;;0.80;0.80;;;;;;;;;;5052105;28;20753;-74
2022/12/31 07:41:55;;;;;;;0.83;0.83;;;;;;;;;;5051485;28;20898;-75
2022/12/31 07:44:30;;;;;;;0.70;0.70;;;;;;;;;;5051893;28;20441;-74
2022/12/31 07:46:58;;;;;;;0.80;0.80;;;;;;;;;;5052150;28;20690;-75
2022/12/31 07:49:26;;;;;;;0.93;0.93;;;;;;;;;;5051835;28;20456;-74
2022/12/31 07:51:53;;;;;;;0.83;0.77;;;;;;;;;;5053150;28;21076;-75
2022/12/31 07:54:21;;;;;;;1.10;1.10;;;;;;;;;;5052678;28;20949;-76
2022/12/31 07:56:48;;;;;;;1.80;1.23;;;;;;;;;;5051933;28;20449;-75
2022/12/31 07:59:21;;;;;;;1.00;0.90;;;;;;;;;;5051583;28;20453;-75
2022/12/31 08:01:51;;;;;;;0.90;0.90;;;;;;;;;;5051782;28;20456;-75
2022/12/31 08:04:21;;;;;;;0.97;0.87;;;;;;;;;;5051495;28;20446;-75
2022/12/31 08:06:53;;;;;;;1.43;1.03;;;;;;;;;;5051445;28;20445;-75
2022/12/31 08:09:26;;;;;;;0.90;0.80;;;;;;;;;;5051828;28;20521;-75
2022/12/31 08:11:56;;;;;;;0.80;0.70;;;;;;;;;;5051904;28;20553;-75
2022/12/31 08:14:23;;;;;;;1.03;0.83;;;;;;;;;;5047068;28;20439;-74
2022/12/31 08:16:52;;;;;;;1.53;0.90;;;;;;;;;;5031638;28;20446;-75
2022/12/31 08:19:23;;;;;;;1.87;0.83;;;;;;;;;;5031664;28;20858;-75
2022/12/31 08:21:56;;;;;;;0.77;0.77;;;;;;;;;;5031729;28;20911;-75
2022/12/31 08:24:26;;;;;;;2.60;0.90;;;;;;;;;;5031605;28;20442;-75
2022/12/31 08:26:58;;;;;;;0.90;0.90;;;;;;;;;;5031165;28;20447;-74
2022/12/31 08:29:36;;;;;;;0.80;0.80;;;;;;;;;;5031134;28;20446;-74
2022/12/31 08:32:10;;;;;;;2.10;0.90;;;;;;;;;;5031233;28;20446;-75
2022/12/31 08:34:41;;;;;;;0.80;0.80;;;;;;;;;;5031117;28;20454;-74
2022/12/31 08:37:11;;;;;;;1.17;0.80;;;;;;;;;;5031314;28;20474;-75
2022/12/31 08:39:44;;;;;;;1.63;1.47;;;;;;;;;;5031352;28;20829;-75
2022/12/31 08:42:18;;;;;;;1.17;1.00;;;;;;;;;;5031368;28;20442;-74
2022/12/31 08:44:47;;;;;;;1.10;0.97;;;;;;;;;;5030809;28;20529;-75
2022/12/31 08:47:19;;;;;;;1.07;1.07;;;;;;;;;;5030882;28;21095;-75
2022/12/31 08:49:46;;;;;;;2.77;1.07;;;;;;;;;;5031053;28;20449;-74
2022/12/31 08:52:16;;;;;;;1.53;1.43;;;;;;;;;;5070256;28;20451;-74
2022/12/31 08:54:43;;;;;;;0.93;0.90;;;;;;;;;;5071264;28;20531;-75
2022/12/31 08:57:16;;;;;;;1.00;1.00;;;;;;;;;;5070131;28;20514;-74
2022/12/31 08:59:49;;;;;;;0.70;0.70;;;;;;;;;;5070672;28;20468;-75
2022/12/31 09:02:30;;;;;;;0.90;0.90;;;;;;;;;;5070552;28;20448;-75
2022/12/31 09:05:04;;;;;;;1.93;1.10;;;;;;;;;;5070533;28;20440;-75
2022/12/31 09:07:34;;;;;;;1.50;0.80;;;;;;;;;;5070454;28;20487;-74
2022/12/31 09:10:11;;;;;;;1.03;1.03;;;;;;;;;;5070290;28;20936;-73
2022/12/31 09:12:42;;;;;;;1.10;1.10;;;;;;;;;;5070259;28;20448;-74
2022/12/31 09:15:13;;;;;;;1.33;1.00;;;;;;;;;;5070501;28;20457;-74
2022/12/31 09:17:45;;;;;;;2.70;1.57;;;;;;;;;;5070050;28;20465;-74
2022/12/31 09:20:22;;;;;;;5.03;1.33;;;;;;;;;;5070113;28;20455;-74
2022/12/31 09:22:49;;;;;;;1.10;1.00;;;;;;;;;;5069985;28;20444;-74
2022/12/31 09:25:17;;;;;;;1.93;1.20;;;;;;;;;;5070116;28;20476;-75
2022/12/31 09:27:48;;;;;;;3.03;1.10;;;;;;;;;;5049575;28;20481;-74
2022/12/31 09:30:16;;;;;;;2.30;0.90;;;;;;;;;;5050184;28;20441;-75
2022/12/31 09:32:47;;;;;;;0.97;0.90;;;;;;;;;;5049654;28;20446;-75
2022/12/31 09:35:20;;;;;;;1.20;1.20;;;;;;;;;;5050235;28;20480;-74
2022/12/31 09:37:47;;;;;;;1.80;1.70;;;;;;;;;;5049839;28;20493;-75
2022/12/31 09:40:30;;;;;;;0.90;0.90;;;;;;;;;;5049840;28;20453;-75
2022/12/31 09:43:17;;;;;;;1.20;1.10;;;;;;;;;;5049443;28;20450;-75
2022/12/31 09:45:55;;;;;;;3.03;1.00;;;;;;;;;;5050440;28;20445;-75
2022/12/31 09:48:37;;;;;;;2.10;1.10;;;;;;;;;;5051284;28;20481;-75
2022/12/31 09:51:15;;;;;;;1.33;0.70;;;;;;;;;;5049630;28;20445;-74
2022/12/31 09:53:52;;;;;;;0.60;0.60;;;;;;;;;;5049863;28;20804;-75
2022/12/31 09:56:23;;;;;;;0.90;0.90;;;;;;;;;;5050280;28;20441;-74
2022/12/31 09:58:57;;;;;;;0.70;0.70;;;;;;;;;;5050505;28;20462;-74
2022/12/31 10:01:31;;;;;;;0.63;0.63;;;;;;;;;;5050208;28;20448;-74
2022/12/31 10:04:13;;;;;;;0.73;0.73;;;;;;;;;;5050999;28;20515;-74
2022/12/31 10:06:45;;;;;;;1.20;0.93;;;;;;;;;;5052379;28;20453;-74
2022/12/31 10:09:27;;;;;;;0.70;0.70;;;;;;;;;;5055506;28;20485;-73
2022/12/31 10:12:16;;;;;;;0.80;0.80;;;;;;;;;;5054985;28;20799;-74
2022/12/31 10:14:50;;;;;;;0.80;0.80;;;;;;;;;;5046032;28;20454;-74
2022/12/31 10:17:23;;;;;;;0.80;0.80;;;;;;;;;;5033437;28;20889;-73
2022/12/31 10:20:15;;;;;;;0.90;0.90;;;;;;;;;;5033625;28;20466;-73
2022/12/31 10:22:46;;;;;;;1.07;0.80;;;;;;;;;;5044795;28;20446;-74
2022/12/31 10:25:43;;;;;;;0.67;0.67;;;;;;;;;;5051931;28;20949;-75
2022/12/31 10:28:15;;;;;;;1.20;1.10;;;;;;;;;;4991516;28;20526;-75
2022/12/31 10:30:48;;;;;;;0.97;0.97;;;;;;;;;;5041440;28;20450;-76
2022/12/31 10:33:16;;;;;;;0.97;0.93;;;;;;;;;;5058536;28;20457;-75
2022/12/31 10:35:50;;;;;;;1.30;1.20;;;;;;;;;;5053371;28;20445;-76
2022/12/31 10:38:27;;;;;;;1.50;0.87;;;;;;;;;;5053951;28;20465;-75
2022/12/31 10:41:24;;;;;;;0.60;0.60;;;;;;;;;;5053533;28;20851;-75
2022/12/31 10:44:04;;;;;;;1.13;0.83;;;;;;;;;;5052875;28;20812;-75
2022/12/31 10:46:46;;;;;;;1.20;1.10;;;;;;;;;;5053311;28;20864;-74
2022/12/31 10:49:29;;;;;;;0.70;0.70;;;;;;;;;;5020271;28;20484;-75
2022/12/31 10:52:06;;;;;;;0.97;0.60;;;;;;;;;;5053933;28;20448;-74
2022/12/31 10:54:52;;;;;;;0.60;0.60;;;;;;;;;;5072102;28;20433;-74
2022/12/31 10:57:32;;;;;;;0.80;0.80;;;;;;;;;;5077520;28;20472;-75
2022/12/31 11:00:09;;;;;;;0.80;0.80;;;;;;;;;;5078202;28;20449;-74
2022/12/31 11:02:53;;;;;;;0.70;0.70;;;;;;;;;;5070369;28;20440;-74
2022/12/31 11:05:35;;;;;;;1.63;0.90;;;;;;;;;;5053809;28;20449;-75
2022/12/31 11:08:24;;;;;;;1.27;0.90;;;;;;;;;;5053795;28;20486;-76
2022/12/31 11:11:09;;;;;;;2.00;1.17;;;;;;;;;;5055031;28;20445;-75
2022/12/31 11:13:53;;;;;;;0.90;0.90;;;;;;;;;;5053285;28;20450;-74
2022/12/31 11:16:27;;;;;;;0.83;0.83;;;;;;;;;;5031704;28;21039;-74
2022/12/31 11:19:00;;;;;;;1.13;0.70;;;;;;;;;;5033379;28;20466;-74
2022/12/31 11:21:42;;;;;;;0.80;0.80;;;;;;;;;;5032884;28;20446;-75
2022/12/31 11:24:14;;;;;;;1.23;0.70;;;;;;;;;;5030189;28;20457;-74
2022/12/31 11:26:50;;;;;;;0.60;0.60;;;;;;;;;;5032474;28;20450;-75
2022/12/31 11:29:30;;;;;;;0.73;0.70;;;;;;;;;;5032517;28;20480;-75
2022/12/31 11:32:18;;;;;;;1.50;0.80;;;;;;;;;;5032678;28;20453;-74
2022/12/31 11:35:00;;;;;;;1.17;0.73;;;;;;;;;;5032255;28;20442;-74
2022/12/31 11:37:31;;;;;;;2.20;0.67;;;;;;;;;;5032170;28;20470;-73
2022/12/31 11:40:01;;;;;;;0.80;0.80;;;;;;;;;;5032534;28;20454;-75
2022/12/31 11:42:35;;;;;;;1.90;0.80;;;;;;;;;;5032438;28;20473;-74
2022/12/31 11:45:11;;;;;;;0.80;0.80;;;;;;;;;;5032068;28;20458;-74
2022/12/31 11:47:44;;;;;;;0.93;0.60;;;;;;;;;;5032367;28;20473;-74
2022/12/31 11:50:23;;;;;;;0.60;0.60;;;;;;;;;;5031944;28;20475;-75
2022/12/31 11:52:57;;;;;;;0.80;0.80;;;;;;;;;;5031845;28;20807;-74
2022/12/31 11:55:42;;;;;;;0.63;0.63;;;;;;;;;;5032196;28;20801;-75
2022/12/31 11:58:14;;;;;;;1.27;1.00;;;;;;;;;;5031788;28;20855;-75
2022/12/31 12:00:45;;;;;;;1.63;1.00;;;;;;;;;;5031510;28;20814;-75
2022/12/31 12:03:13;;;;;;;0.70;0.70;;;;;;;;;;5031776;28;20422;-75
2022/12/31 12:05:40;;;;;;;0.60;0.60;;;;;;;;;;5031854;28;20445;-75
2022/12/31 12:08:07;;;;;;;0.77;0.60;;;;;;;;;;5031644;28;20458;-76
2022/12/31 12:10:38;;;;;;;0.83;0.73;;;;;;;;;;5032210;28;20930;-74
2022/12/31 12:13:11;;;;;;;0.80;0.73;;;;;;;;;;5032496;28;20862;-75
2022/12/31 12:15:38;;;;;;;0.60;0.60;;;;;;;;;;5047219;28;20447;-76
2022/12/31 12:18:08;;;;;;;1.90;1.20;;;;;;;;;;5052565;28;20976;-75
2022/12/31 12:20:36;;;;;;;0.70;0.70;;;;;;;;;;5052287;28;20445;-74
2022/12/31 12:23:14;;;;;;;0.50;0.50;;;;;;;;;;5052038;28;20449;-75
2022/12/31 12:25:42;;;;;;;1.43;0.90;;;;;;;;;;5051206;28;20879;-76
2022/12/31 12:28:18;;;;;;;1.27;0.90;;;;;;;;;;5050428;28;20560;-74
2022/12/31 12:30:46;;;;;;;0.50;0.50;;;;;;;;;;5051910;28;20459;-74
2022/12/31 12:33:17;;;;;;;0.90;0.90;;;;;;;;;;5052155;28;20943;-74
2022/12/31 12:35:44;;;;;;;0.63;0.63;;;;;;;;;;5052318;28;20445;-75
2022/12/31 12:38:15;;;;;;;2.13;0.80;;;;;;;;;;5052687;28;20481;-74
2022/12/31 12:40:43;;;;;;;1.00;0.70;;;;;;;;;;5052172;28;20438;-76
2022/12/31 12:43:21;;;;;;;1.83;1.30;;;;;;;;;;5052082;28;20441;-76
2022/12/31 12:45:49;;;;;;;0.70;0.70;;;;;;;;;;5052431;28;20453;-75
2022/12/31 12:48:21;;;;;;;0.83;0.70;;;;;;;;;;5051376;28;20469;-76
2022/12/31 12:50:49;;;;;;;0.70;0.70;;;;;;;;;;5050899;28;20452;-75
2022/12/31 12:53:20;;;;;;;0.80;0.80;;;;;;;;;;5050799;28;20452;-76
2022/12/31 12:55:53;;;;;;;1.27;0.60;;;;;;;;;;5053865;28;20426;-74
2022/12/31 12:58:26;;;;;;;0.77;0.70;;;;;;;;;;5055170;28;20465;-74
2022/12/31 13:00:58;;;;;;;1.53;0.60;;;;;;;;;;5052977;28;20945;-74
2022/12/31 13:03:54;;;;;;;2.03;0.60;;;;;;;;;;5051322;28;20454;-77
2022/12/31 13:06:27;;;;;;;1.07;0.50;;;;;;;;;;5051465;28;20445;-76
2022/12/31 13:09:02;;;;;;;0.77;0.77;;;;;;;;;;5050317;28;21015;-75
2022/12/31 13:11:34;;;;;;;0.50;0.50;;;;;;;;;;5050386;28;20458;-74
2022/12/31 13:14:05;;;;;;;0.83;0.83;;;;;;;;;;5048685;28;20445;-75
2022/12/31 13:16:37;;;;;;;0.80;0.77;;;;;;;;;;5030368;28;20457;-75
2022/12/31 13:19:09;;;;;;;0.60;0.50;;;;;;;;;;5030679;28;20541;-75
2022/12/31 13:21:41;;;;;;;0.60;0.60;;;;;;;;;;5030465;28;20437;-74
2022/12/31 13:24:14;;;;;;;0.60;0.60;;;;;;;;;;5030082;28;20446;-75
2022/12/31 13:26:45;;;;;;;1.80;0.70;;;;;;;;;;5030122;28;20524;-74
2022/12/31 13:29:15;;;;;;;0.87;0.80;;;;;;;;;;5030307;28;20489;-74
2022/12/31 13:31:42;;;;;;;0.60;0.60;;;;;;;;;;5030045;28;20469;-75
2022/12/31 13:34:14;;;;;;;0.57;0.57;;;;;;;;;;5029776;28;20442;-74
2022/12/31 13:36:43;;;;;;;0.67;0.67;;;;;;;;;;5029728;28;20501;-76
2022/12/31 13:39:15;;;;;;;1.63;0.80;;;;;;;;;;5029415;28;20829;-74
2022/12/31 13:41:44;;;;;;;0.67;0.67;;;;;;;;;;5029986;28;20450;-75
2022/12/31 13:44:14;;;;;;;1.37;0.70;;;;;;;;;;5029768;28;20446;-75
2022/12/31 13:46:44;;;;;;;2.10;0.53;;;;;;;;;;5029690;28;20461;-75
2022/12/31 13:49:16;;;;;;;0.47;0.47;;;;;;;;;;5029493;28;21036;-74
2022/12/31 13:51:44;;;;;;;0.70;0.70;;;;;;;;;;5029741;28;20470;-75
2022/12/31 13:54:21;;;;;;;0.50;0.50;;;;;;;;;;5029417;28;20451;-75
2022/12/31 13:56:51;;;;;;;1.13;0.53;;;;;;;;;;5031056;28;20457;-75
2022/12/31 13:59:21;;;;;;;0.70;0.70;;;;;;;;;;5029685;28;20442;-76
2022/12/31 14:01:50;;;;;;;2.10;0.90;;;;;;;;;;5029638;28;21005;-77
2022/12/31 14:04:21;;;;;;;0.60;0.60;;;;;;;;;;5029593;28;20447;-75
2022/12/31 14:06:51;;;;;;;0.50;0.50;;;;;;;;;;5029712;28;20442;-74
2022/12/31 14:09:22;;;;;;;1.40;0.87;;;;;;;;;;5029664;28;20474;-75
2022/12/31 14:11:54;;;;;;;0.70;0.70;;;;;;;;;;5029558;28;20870;-76
2022/12/31 14:14:27;;;;;;;1.23;0.73;;;;;;;;;;5033463;28;20815;-75
2022/12/31 14:16:59;;;;;;;1.60;0.83;;;;;;;;;;5049755;28;20643;-75
2022/12/31 14:19:35;;;;;;;0.70;0.70;;;;;;;;;;5049451;28;20442;-75
2022/12/31 14:22:04;;;;;;;0.70;0.70;;;;;;;;;;5049344;28;20432;-75
2022/12/31 14:24:42;;;;;;;1.07;0.70;;;;;;;;;;5049056;28;20925;-75
2022/12/31 14:27:11;;;;;;;1.23;0.70;;;;;;;;;;5049104;28;20531;-75
2022/12/31 14:29:40;;;;;;;0.50;0.50;;;;;;;;;;5048976;28;20482;-74
2022/12/31 14:32:23;;;;;;;1.27;0.70;;;;;;;;;;5049664;28;20532;-74
2022/12/31 14:34:56;;;;;;;1.27;0.50;;;;;;;;;;5048761;28;20428;-74
2022/12/31 14:37:29;;;;;;;0.50;0.50;;;;;;;;;;5049581;28;20469;-74
2022/12/31 14:40:00;;;;;;;0.90;0.90;;;;;;;;;;5049698;28;20430;-77
2022/12/31 14:42:31;;;;;;;0.50;0.50;;;;;;;;;;5049465;28;20549;-76
2022/12/31 14:45:03;;;;;;;0.80;0.80;;;;;;;;;;5049176;28;20449;-74
2022/12/31 14:47:34;;;;;;;2.00;0.70;;;;;;;;;;5049158;28;20488;-76
2022/12/31 14:50:06;;;;;;;0.97;0.67;;;;;;;;;;5049659;28;20900;-74
2022/12/31 14:52:34;;;;;;;0.50;0.50;;;;;;;;;;5052894;28;20437;-74
2022/12/31 14:55:01;;;;;;;0.93;0.80;;;;;;;;;;5053966;28;20446;-75
2022/12/31 14:57:34;;;;;;;0.63;0.63;;;;;;;;;;5053215;28;21000;-74
2022/12/31 15:00:02;;;;;;;1.20;1.10;;;;;;;;;;5053123;28;20445;-76
2022/12/31 15:02:31;;;;;;;2.50;2.30;;;;;;;;;;5065413;28;20687;-75
2022/12/31 15:05:15;;;;;;;3.17;1.60;;;;;;;;;;5065393;28;20449;-75
2022/12/31 15:07:47;;;;;;;1.40;1.30;;;;;;;;;;5066911;28;20481;-75
2022/12/31 15:10:16;;;;;;;1.10;1.10;;;;;;;;;;5065757;28;20488;-76
2022/12/31 15:12:48;;;;;;;1.60;1.50;;;;;;;;;;5071840;28;20456;-75
2022/12/31 15:15:23;;;;;;;2.20;1.00;;;;;;;;;;5064765;28;20434;-77
2022/12/31 15:17:57;;;;;;;1.17;1.17;;;;;;;;;;5057921;28;20488;-76
2022/12/31 15:20:42;;;;;;;1.20;1.20;;;;;;;;;;5058068;28;20448;-77